createdAt,value
2017-08-21T00:01:52.892Z,79.59
2017-08-21T00:04:21.282Z,79.49
2017-08-21T00:06:49.661Z,79.41
2017-08-21T00:09:18.060Z,79.06
2017-08-21T00:11:46.458Z,78.95
2017-08-21T00:14:15.625Z,79.21
2017-08-21T00:16:43.995Z,79.04
2017-08-21T00:19:12.387Z,79.62
2017-08-21T00:21:40.770Z,79.82
2017-08-21T00:24:09.151Z,79.36
2017-08-21T00:26:37.559Z,79.32
2017-08-21T00:29:06.705Z,79.81
2017-08-21T00:31:35.111Z,80.07
2017-08-21T00:34:03.500Z,80.28
2017-08-21T00:36:31.900Z,80.01
2017-08-21T00:39:01.056Z,80.20
2017-08-21T00:41:29.441Z,79.98
2017-08-21T00:43:57.840Z,80.44
2017-08-21T00:46:26.242Z,80.30
2017-08-21T00:48:54.631Z,81.01
2017-08-21T00:51:23.010Z,80.92
2017-08-21T00:53:52.184Z,80.93
2017-08-21T00:56:20.575Z,80.02
2017-08-21T00:58:49.744Z,80.94
2017-08-21T01:01:18.127Z,80.51
2017-08-21T01:03:46.504Z,80.73
2017-08-21T01:06:14.896Z,81.00
2017-08-21T01:08:43.265Z,80.47
2017-08-21T01:11:11.680Z,80.13
2017-08-21T01:13:40.823Z,80.42
2017-08-21T01:16:09.202Z,80.12
2017-08-21T01:18:37.599Z,79.94
2017-08-21T01:21:05.975Z,80.07
2017-08-21T01:23:34.345Z,79.83
2017-08-21T01:26:02.762Z,79.52
2017-08-21T01:28:31.151Z,79.71
2017-08-21T01:30:59.561Z,79.35
2017-08-21T01:33:27.943Z,79.26
2017-08-21T01:35:57.231Z,79.57
2017-08-21T01:38:26.385Z,79.48
2017-08-21T01:40:54.764Z,79.19
2017-08-21T01:43:23.158Z,79.18
2017-08-21T01:45:51.536Z,79.63
2017-08-21T01:48:19.911Z,80.53
2017-08-21T01:50:48.325Z,80.83
2017-08-21T01:53:16.698Z,80.70
2017-08-21T01:55:45.094Z,80.88
2017-08-21T01:58:13.470Z,80.58
2017-08-21T02:00:41.861Z,81.01
2017-08-21T02:03:10.236Z,81.51
2017-08-21T02:05:38.641Z,81.21
2017-08-21T02:08:07.794Z,81.14
2017-08-21T02:10:36.193Z,81.24
2017-08-21T02:13:04.576Z,81.40
2017-08-21T02:15:32.999Z,80.73
2017-08-21T02:18:01.376Z,80.26
2017-08-21T02:20:29.757Z,80.18
2017-08-21T02:22:58.183Z,79.76
2017-08-21T02:25:26.568Z,79.31
2017-08-21T02:27:54.987Z,79.09
2017-08-21T02:30:24.131Z,79.57
2017-08-21T02:32:52.576Z,79.41
2017-08-21T02:35:20.986Z,79.09
2017-08-21T02:37:49.375Z,79.16
2017-08-21T02:40:17.793Z,78.98
2017-08-21T02:42:46.169Z,79.63
2017-08-21T02:45:14.550Z,79.51
2017-08-21T02:47:42.955Z,80.16
2017-08-21T02:50:12.121Z,79.78
2017-08-21T02:52:40.494Z,80.12
2017-08-21T02:55:08.896Z,80.31
2017-08-21T02:57:37.277Z,80.07
2017-08-21T03:00:05.685Z,79.61
2017-08-21T03:02:34.062Z,79.35
2017-08-21T03:05:02.441Z,79.56
2017-08-21T03:07:31.612Z,79.50
2017-08-21T03:09:59.984Z,79.20
2017-08-21T03:12:28.393Z,78.73
2017-08-21T03:14:57.534Z,78.62
2017-08-21T03:17:25.934Z,78.75
2017-08-21T03:19:54.325Z,79.30
2017-08-21T03:22:22.735Z,79.34
2017-08-21T03:24:51.896Z,79.30
2017-08-21T03:27:20.269Z,80.27
2017-08-21T03:29:48.674Z,80.28
2017-08-21T03:32:17.056Z,80.94
2017-08-21T03:34:45.474Z,80.88
2017-08-21T03:37:13.864Z,80.60
2017-08-21T03:39:42.275Z,80.38
2017-08-21T03:42:10.660Z,80.08
2017-08-21T03:44:39.044Z,79.70
2017-08-21T03:47:07.457Z,80.01
2017-08-21T03:49:35.825Z,80.15
2017-08-21T03:52:04.202Z,80.00
2017-08-21T03:54:32.625Z,80.09
2017-08-21T03:57:01.001Z,80.48
2017-08-21T03:59:30.311Z,80.34
2017-08-21T04:01:58.694Z,81.86
2017-08-21T04:04:27.066Z,81.47
2017-08-21T04:06:55.484Z,81.72
2017-08-21T04:09:23.880Z,81.95
2017-08-21T04:11:52.297Z,81.74
2017-08-21T04:14:20.694Z,81.58
2017-08-21T04:16:49.095Z,81.64
2017-08-21T04:19:17.490Z,81.43
2017-08-21T04:21:45.902Z,81.83
2017-08-21T04:24:14.292Z,82.00
2017-08-21T04:26:42.693Z,82.36
2017-08-21T04:29:11.871Z,82.24
2017-08-21T04:31:40.259Z,82.13
2017-08-21T04:34:08.698Z,81.88
2017-08-21T04:36:37.086Z,81.73
2017-08-21T04:39:05.492Z,81.25
2017-08-21T04:41:33.880Z,80.83
2017-08-21T04:44:02.254Z,80.33
2017-08-21T04:46:30.657Z,79.66
2017-08-21T04:48:59.044Z,79.28
2017-08-21T04:51:28.202Z,78.96
2017-08-21T04:53:56.625Z,78.82
2017-08-21T04:56:25.005Z,79.03
2017-08-21T04:58:53.420Z,78.95
2017-08-21T05:01:21.819Z,79.38
2017-08-21T05:03:50.195Z,79.48
2017-08-21T05:06:18.614Z,80.06
2017-08-21T05:08:47.757Z,81.25
2017-08-21T05:11:16.158Z,81.19
2017-08-21T05:13:44.566Z,81.00
2017-08-21T05:16:13.256Z,80.67
2017-08-21T05:18:41.664Z,79.81
2017-08-21T05:21:10.823Z,79.36
2017-08-21T05:23:39.206Z,79.27
2017-08-21T05:26:07.608Z,79.52
2017-08-21T05:28:35.998Z,79.37
2017-08-21T05:31:05.183Z,79.21
2017-08-21T05:33:33.577Z,79.04
2017-08-21T05:36:01.973Z,78.82
2017-08-21T05:38:30.372Z,78.81
2017-08-21T05:40:58.751Z,78.38
2017-08-21T05:43:27.211Z,78.02
2017-08-21T05:45:55.601Z,77.71
2017-08-21T05:48:23.991Z,77.48
2017-08-21T05:50:52.397Z,77.14
2017-08-21T05:53:20.811Z,77.46
2017-08-21T05:55:49.190Z,77.52
2017-08-21T05:58:17.559Z,77.99
2017-08-21T06:00:45.957Z,78.12
2017-08-21T06:03:14.461Z,78.21
2017-08-21T06:05:43.628Z,77.80
2017-08-21T06:08:12.027Z,77.35
2017-08-21T06:10:40.430Z,76.58
2017-08-21T06:13:09.584Z,76.80
2017-08-21T06:15:37.993Z,77.25
2017-08-21T06:18:06.367Z,76.69
2017-08-21T06:20:36.003Z,76.33
2017-08-21T06:23:04.383Z,76.26
2017-08-21T06:25:32.765Z,76.72
2017-08-21T06:28:01.939Z,77.15
2017-08-21T06:30:30.308Z,77.05
2017-08-21T06:32:58.700Z,77.05
2017-08-21T06:35:27.079Z,76.65
2017-08-21T06:37:55.494Z,76.18
2017-08-21T06:40:23.861Z,75.90
2017-08-21T06:42:53.035Z,75.54
2017-08-21T06:45:21.405Z,76.01
2017-08-21T06:47:49.806Z,76.16
2017-08-21T06:50:18.192Z,76.26
2017-08-21T06:52:46.603Z,75.74
2017-08-21T06:55:14.978Z,75.16
2017-08-21T06:57:43.386Z,74.90
2017-08-21T07:00:11.773Z,74.63
2017-08-21T07:02:40.172Z,74.59
2017-08-21T07:05:08.562Z,74.50
2017-08-21T07:07:36.936Z,74.32
2017-08-21T07:10:05.343Z,74.14
2017-08-21T07:12:33.715Z,73.94
2017-08-21T07:15:02.128Z,73.78
2017-08-21T07:17:30.516Z,73.37
2017-08-21T07:19:58.917Z,72.92
2017-08-21T07:22:27.327Z,72.92
2017-08-21T07:24:55.715Z,72.81
2017-08-21T07:27:24.127Z,72.36
2017-08-21T07:29:52.544Z,72.99
2017-08-21T07:32:20.942Z,72.03
2017-08-21T07:34:49.353Z,71.59
2017-08-21T07:37:17.751Z,71.15
2017-08-21T07:39:46.185Z,71.08
2017-08-21T07:42:14.565Z,71.65
2017-08-21T07:44:42.937Z,71.49
2017-08-21T07:47:11.352Z,72.14
2017-08-21T07:49:39.754Z,71.14
2017-08-21T07:52:08.186Z,70.32
2017-08-21T07:54:36.554Z,68.68
2017-08-21T07:57:04.939Z,68.46
2017-08-21T07:59:33.345Z,68.95
2017-08-21T08:02:01.729Z,68.27
2017-08-21T08:04:30.130Z,68.78
2017-08-21T08:06:58.543Z,67.12
2017-08-21T08:09:26.932Z,66.62
2017-08-21T08:11:55.330Z,66.05
2017-08-21T08:14:23.693Z,65.81
2017-08-21T08:16:52.057Z,64.55
2017-08-21T08:19:20.452Z,65.35
2017-08-21T08:21:48.819Z,66.29
2017-08-21T08:24:17.213Z,66.12
2017-08-21T08:26:45.621Z,66.01
2017-08-21T08:29:14.003Z,64.54
2017-08-21T08:31:42.370Z,65.52
2017-08-21T08:34:10.737Z,63.98
2017-08-21T08:36:39.151Z,63.16
2017-08-21T08:39:07.528Z,60.65
2017-08-21T08:41:35.918Z,62.86
2017-08-21T08:44:04.285Z,61.88
2017-08-21T08:46:32.686Z,61.29
2017-08-21T08:49:01.068Z,59.38
2017-08-21T08:51:29.482Z,59.04
2017-08-21T08:53:57.868Z,57.49
2017-08-21T08:56:27.019Z,59.16
2017-08-21T08:58:55.424Z,57.57
2017-08-21T09:01:23.793Z,59.01
2017-08-21T09:03:52.215Z,55.00
2017-08-21T09:06:21.363Z,52.61
2017-08-21T09:08:49.761Z,54.21
2017-08-21T09:11:18.146Z,54.84
2017-08-21T09:13:46.552Z,50.75
2017-08-21T09:16:15.700Z,52.38
2017-08-21T09:18:44.073Z,48.41
2017-08-21T09:21:12.472Z,49.36
2017-08-21T09:23:40.853Z,47.06
2017-08-21T09:26:09.279Z,50.64
2017-08-21T09:28:37.711Z,47.03
2017-08-21T09:31:06.118Z,52.08
2017-08-21T09:33:34.500Z,52.45
2017-08-21T09:36:02.892Z,52.39
2017-08-21T09:38:31.269Z,50.02
2017-08-21T09:40:59.638Z,51.83
2017-08-21T09:43:28.047Z,51.96
2017-08-21T09:45:56.410Z,52.01
2017-08-21T09:48:24.803Z,50.93
2017-08-21T09:50:53.959Z,49.67
2017-08-21T09:53:22.369Z,49.18
2017-08-21T09:55:50.755Z,46.63
2017-08-21T09:58:19.128Z,47.92
2017-08-21T10:00:47.536Z,47.94
2017-08-21T10:03:15.916Z,48.74
2017-08-21T10:05:45.071Z,49.58
2017-08-21T10:08:13.453Z,46.45
2017-08-21T10:10:41.864Z,46.80
2017-08-21T10:13:39.488Z,47.23
2017-08-21T10:16:07.898Z,48.39
2017-08-21T10:18:36.280Z,47.43
2017-08-21T10:21:04.699Z,42.61
2017-08-21T10:23:33.100Z,43.12
2017-08-21T10:26:01.483Z,43.59
2017-08-21T10:28:29.890Z,45.06
2017-08-21T10:30:58.261Z,42.33
2017-08-21T10:33:26.644Z,43.13
2017-08-21T10:35:55.041Z,42.45
2017-08-21T10:38:23.422Z,40.77
2017-08-21T10:40:51.823Z,40.89
2017-08-21T10:43:20.207Z,39.60
2017-08-21T10:45:48.620Z,41.51
2017-08-21T10:48:16.989Z,39.43
2017-08-21T10:50:45.400Z,39.93
2017-08-21T10:53:13.786Z,41.10
2017-08-21T10:55:42.177Z,43.19
2017-08-21T10:58:10.601Z,41.03
2017-08-21T11:00:39.002Z,38.61
2017-08-21T11:03:07.421Z,38.72
2017-08-21T11:05:35.813Z,38.40
2017-08-21T11:08:04.195Z,37.23
2017-08-21T11:10:32.589Z,41.36
2017-08-21T11:13:00.984Z,37.55
2017-08-21T11:15:29.384Z,35.20
2017-08-21T11:17:57.779Z,37.85
2017-08-21T11:20:26.171Z,41.17
2017-08-21T11:22:54.576Z,41.51
2017-08-21T11:25:22.943Z,42.95
2017-08-21T11:27:51.319Z,42.96
2017-08-21T11:30:19.730Z,41.14
2017-08-21T11:32:48.103Z,41.43
2017-08-21T11:35:16.515Z,40.98
2017-08-21T11:37:44.889Z,42.67
2017-08-21T11:40:13.299Z,42.07
2017-08-21T11:42:41.665Z,43.99
2017-08-21T11:45:10.074Z,42.74
2017-08-21T11:47:38.450Z,41.46
2017-08-21T11:50:06.828Z,41.43
2017-08-21T11:52:35.224Z,42.12
2017-08-21T11:55:03.583Z,38.88
2017-08-21T11:57:31.975Z,42.04
2017-08-21T12:00:00.383Z,42.41
2017-08-21T12:02:28.767Z,40.56
2017-08-21T12:04:57.129Z,39.28
2017-08-21T12:07:25.508Z,38.05
2017-08-21T12:09:53.874Z,38.38
2017-08-21T12:12:22.292Z,41.24
2017-08-21T12:14:50.687Z,41.70
2017-08-21T12:17:19.099Z,40.18
2017-08-21T12:19:47.465Z,36.33
2017-08-21T12:22:15.857Z,37.25
2017-08-21T12:24:44.263Z,37.12
2017-08-21T12:27:12.654Z,39.38
2017-08-21T12:29:41.051Z,36.94
2017-08-21T12:32:09.430Z,34.12
2017-08-21T12:34:37.807Z,36.95
2017-08-21T12:37:06.206Z,32.81
2017-08-21T12:39:34.602Z,37.75
2017-08-21T12:42:03.013Z,39.84
2017-08-21T12:44:31.413Z,35.30
2017-08-21T12:46:59.803Z,34.52
2017-08-21T12:49:28.203Z,34.90
2017-08-21T12:51:56.641Z,35.51
2017-08-21T12:54:25.018Z,34.04
2017-08-21T12:56:53.432Z,37.29
2017-08-21T12:59:21.815Z,33.67
2017-08-21T13:01:50.203Z,35.49
2017-08-21T13:04:18.610Z,35.09
2017-08-21T13:06:46.992Z,36.39
2017-08-21T13:09:15.427Z,36.66
2017-08-21T13:11:43.788Z,37.59
2017-08-21T13:14:12.190Z,36.62
2017-08-21T13:16:40.571Z,37.04
2017-08-21T13:19:08.972Z,40.59
2017-08-21T13:21:37.351Z,40.53
2017-08-21T13:24:05.753Z,37.97
2017-08-21T13:26:34.138Z,35.21
2017-08-21T13:29:02.515Z,37.23
2017-08-21T13:31:30.939Z,34.78
2017-08-21T13:33:59.325Z,33.44
2017-08-21T13:36:27.740Z,30.84
2017-08-21T13:38:56.106Z,34.92
2017-08-21T13:41:24.516Z,31.86
2017-08-21T13:43:52.881Z,34.34
2017-08-21T13:46:21.304Z,32.75
2017-08-21T13:48:49.700Z,32.84
2017-08-21T13:51:18.080Z,33.92
2017-08-21T13:53:46.494Z,31.76
2017-08-21T13:56:14.877Z,30.15
2017-08-21T13:58:43.283Z,29.68
2017-08-21T14:01:11.654Z,30.08
2017-08-21T14:03:40.040Z,29.56
2017-08-21T14:06:08.452Z,27.98
2017-08-21T14:08:36.834Z,25.37
2017-08-21T14:11:05.220Z,25.53
2017-08-21T14:13:33.654Z,26.25
2017-08-21T14:16:02.045Z,24.59
2017-08-21T14:18:30.455Z,26.63
2017-08-21T14:20:58.820Z,28.40
2017-08-21T14:23:27.223Z,30.98
2017-08-21T14:25:55.601Z,28.09
2017-08-21T14:28:23.997Z,28.74
2017-08-21T14:30:52.369Z,27.23
2017-08-21T14:33:20.772Z,28.16
2017-08-21T14:35:49.197Z,29.66
2017-08-21T14:38:17.601Z,31.09
2017-08-21T14:40:45.992Z,32.03
2017-08-21T14:43:14.387Z,33.09
2017-08-21T14:45:42.767Z,31.92
2017-08-21T14:48:11.172Z,32.08
2017-08-21T14:50:39.537Z,30.45
2017-08-21T14:53:07.915Z,29.13
2017-08-21T14:55:36.313Z,29.32
2017-08-21T14:58:04.685Z,30.21
2017-08-21T15:00:33.060Z,28.13
2017-08-21T15:03:01.449Z,30.89
2017-08-21T15:05:29.813Z,28.96
2017-08-21T15:07:58.173Z,28.24
2017-08-21T15:10:26.592Z,27.38
2017-08-21T15:12:54.991Z,27.42
2017-08-21T15:15:23.386Z,28.21
2017-08-21T15:17:51.753Z,27.55
2017-08-21T15:20:20.113Z,26.09
2017-08-21T15:22:48.513Z,26.86
2017-08-21T15:25:16.890Z,30.35
2017-08-21T15:27:45.293Z,27.22
2017-08-21T15:30:13.672Z,30.60
2017-08-21T15:32:42.033Z,27.39
2017-08-21T15:35:10.439Z,30.19
2017-08-21T15:37:38.808Z,30.65
2017-08-21T15:40:07.214Z,31.49
2017-08-21T15:42:35.573Z,31.24
2017-08-21T15:45:03.938Z,37.69
2017-08-21T15:47:32.345Z,34.31
2017-08-21T15:50:00.710Z,35.24
2017-08-21T15:52:29.081Z,39.21
2017-08-21T15:54:57.484Z,36.99
2017-08-21T15:57:25.882Z,38.24
2017-08-21T15:59:54.279Z,39.47
2017-08-21T16:02:22.662Z,39.51
2017-08-21T16:04:51.051Z,37.42
2017-08-21T16:07:19.476Z,38.66
2017-08-21T16:09:47.842Z,39.65
2017-08-21T16:12:16.228Z,40.36
2017-08-21T16:14:44.642Z,39.82
2017-08-21T16:17:13.039Z,38.02
2017-08-21T16:19:41.795Z,34.93
2017-08-21T16:22:10.243Z,33.21
2017-08-21T16:24:38.615Z,32.54
2017-08-21T16:27:07.031Z,31.89
2017-08-21T16:29:35.419Z,31.89
2017-08-21T16:32:03.808Z,30.04
2017-08-21T16:34:32.209Z,30.01
2017-08-21T16:37:00.584Z,29.28
2017-08-21T16:39:28.975Z,28.65
2017-08-21T16:41:57.390Z,28.78
2017-08-21T16:44:25.773Z,28.50
2017-08-21T16:46:54.188Z,28.00
2017-08-21T16:49:22.579Z,28.23
2017-08-21T16:51:50.960Z,29.02
2017-08-21T16:54:19.368Z,28.58
2017-08-21T16:56:47.729Z,28.32
2017-08-21T16:59:16.116Z,27.75
2017-08-21T17:01:44.509Z,27.54
2017-08-21T17:04:12.887Z,27.91
2017-08-21T17:06:41.303Z,28.34
2017-08-21T17:09:09.699Z,27.99
2017-08-21T17:11:38.082Z,28.37
2017-08-21T17:14:06.486Z,28.08
2017-08-21T17:16:34.861Z,29.55
2017-08-21T17:19:03.378Z,30.46
2017-08-21T17:21:31.805Z,31.64
2017-08-21T17:24:00.183Z,30.86
2017-08-21T17:26:28.578Z,29.80
2017-08-21T17:28:56.964Z,32.68
2017-08-21T17:31:25.343Z,34.90
2017-08-21T17:33:53.755Z,35.49
2017-08-21T17:36:22.123Z,35.62
2017-08-21T17:38:51.432Z,36.73
2017-08-21T17:41:19.850Z,35.21
2017-08-21T17:43:48.239Z,36.95
2017-08-21T17:46:16.645Z,37.76
2017-08-21T17:48:45.011Z,38.64
2017-08-21T17:51:13.415Z,39.50
2017-08-21T17:53:41.791Z,39.59
2017-08-21T17:56:10.199Z,39.49
2017-08-21T17:58:38.579Z,39.90
2017-08-21T18:01:06.944Z,42.20
2017-08-21T18:03:35.356Z,43.95
2017-08-21T18:06:03.739Z,45.14
2017-08-21T18:08:32.247Z,46.61
2017-08-21T18:11:00.645Z,47.41
2017-08-21T18:13:29.102Z,48.18
2017-08-21T18:15:57.476Z,49.61
2017-08-21T18:18:25.871Z,50.90
2017-08-21T18:20:54.234Z,51.73
2017-08-21T18:23:22.601Z,52.17
2017-08-21T18:25:51.007Z,53.52
2017-08-21T18:28:19.392Z,53.86
2017-08-21T18:30:47.771Z,55.04
2017-08-21T18:33:16.171Z,55.90
2017-08-21T18:35:44.543Z,56.42
2017-08-21T18:38:12.933Z,57.12
2017-08-21T18:40:41.318Z,56.56
2017-08-21T18:43:09.705Z,56.92
2017-08-21T18:45:38.131Z,58.54
2017-08-21T18:48:06.619Z,59.20
2017-08-21T18:50:35.361Z,60.42
2017-08-21T18:53:03.725Z,60.76
2017-08-21T18:55:32.095Z,60.39
2017-08-21T18:58:00.501Z,60.50
2017-08-21T19:00:28.892Z,61.17
2017-08-21T19:02:57.310Z,61.77
2017-08-21T19:05:25.690Z,61.96
2017-08-21T19:07:54.106Z,62.32
2017-08-21T19:10:22.481Z,63.15
2017-08-21T19:12:50.862Z,64.61
2017-08-21T19:15:19.315Z,64.97
2017-08-21T19:17:47.713Z,66.58
2017-08-21T19:20:16.076Z,66.91
2017-08-21T19:22:44.479Z,67.41
2017-08-21T19:25:12.841Z,67.63
2017-08-21T19:27:41.217Z,66.56
2017-08-21T19:30:09.743Z,68.85
2017-08-21T19:32:38.140Z,68.05
2017-08-21T19:35:06.535Z,67.92
2017-08-21T19:37:34.968Z,67.91
2017-08-21T19:40:03.359Z,68.23
2017-08-21T19:42:31.741Z,68.99
2017-08-21T19:45:00.158Z,67.53
2017-08-21T19:47:28.654Z,68.76
2017-08-21T19:49:57.070Z,69.35
2017-08-21T19:52:25.485Z,68.98
2017-08-21T19:54:53.868Z,68.82
2017-08-21T19:57:22.277Z,68.46
2017-08-21T19:59:50.689Z,68.63
2017-08-21T20:02:19.061Z,69.08
2017-08-21T20:04:47.470Z,69.29
2017-08-21T20:07:15.856Z,69.77
2017-08-21T20:09:44.247Z,69.90
2017-08-21T20:12:12.645Z,69.26
2017-08-21T20:14:41.043Z,69.36
2017-08-21T20:17:09.423Z,69.89
2017-08-21T20:19:37.826Z,70.40
2017-08-21T20:22:08.152Z,70.41
2017-08-21T20:24:36.581Z,71.05
2017-08-21T20:27:05.172Z,71.29
2017-08-21T20:29:34.144Z,71.07
2017-08-21T20:32:02.728Z,72.06
2017-08-21T20:34:31.245Z,71.66
2017-08-21T20:36:59.628Z,71.62
2017-08-21T20:39:28.028Z,71.91
2017-08-21T20:41:56.407Z,71.82
2017-08-21T20:44:24.778Z,72.24
2017-08-21T20:46:53.191Z,72.65
2017-08-21T20:49:21.677Z,73.27
2017-08-21T20:51:50.219Z,73.23
2017-08-21T20:54:18.622Z,73.83
2017-08-21T20:56:46.985Z,73.36
2017-08-21T20:59:15.420Z,73.33
2017-08-21T21:01:43.787Z,74.45
2017-08-21T21:04:12.177Z,74.80
2017-08-21T21:06:40.561Z,74.47
2017-08-21T21:09:08.975Z,74.36
2017-08-21T21:11:37.353Z,73.63
2017-08-21T21:14:05.713Z,73.61
2017-08-21T21:16:34.136Z,74.52
2017-08-21T21:19:02.528Z,75.36
2017-08-21T21:21:30.947Z,75.15
2017-08-21T21:23:59.327Z,74.52
2017-08-21T21:26:27.744Z,74.47
2017-08-21T21:28:56.114Z,74.31
2017-08-21T21:31:24.567Z,74.53
2017-08-21T21:33:52.987Z,75.84
2017-08-21T21:36:21.379Z,75.68
2017-08-21T21:38:49.796Z,75.35
2017-08-21T21:41:18.164Z,74.78
2017-08-21T21:43:46.586Z,75.42
2017-08-21T21:46:14.969Z,75.96
2017-08-21T21:48:43.351Z,76.42
2017-08-21T21:51:11.755Z,76.00
2017-08-21T21:53:40.139Z,75.26
2017-08-21T21:56:08.533Z,75.52
2017-08-21T21:58:36.920Z,75.95
2017-08-21T22:01:05.332Z,75.69
2017-08-21T22:03:33.742Z,75.91
2017-08-21T22:06:02.127Z,76.71
2017-08-21T22:08:30.549Z,77.75
2017-08-21T22:11:04.527Z,77.75
2017-08-21T22:13:37.718Z,77.84
2017-08-21T22:16:06.343Z,77.16
2017-08-21T22:18:38.613Z,77.61
2017-08-21T22:21:06.997Z,77.51
2017-08-21T22:23:39.434Z,77.37
2017-08-21T22:26:07.917Z,77.19
2017-08-21T22:28:36.293Z,77.02
2017-08-21T22:31:04.717Z,76.68
2017-08-21T22:33:33.103Z,77.08
2017-08-21T22:36:01.547Z,76.77
2017-08-21T22:38:29.950Z,76.56
2017-08-21T22:40:58.321Z,75.85
2017-08-21T22:43:26.722Z,76.48
2017-08-21T22:45:55.165Z,76.50
2017-08-21T22:48:23.605Z,76.51
2017-08-21T22:50:51.985Z,76.42
2017-08-21T22:53:20.396Z,76.99
2017-08-21T22:55:49.759Z,76.99
2017-08-21T22:58:18.295Z,76.96
2017-08-21T23:00:46.980Z,76.47
2017-08-21T23:03:15.473Z,76.66
2017-08-21T23:05:44.577Z,76.62
2017-08-21T23:08:17.819Z,76.62
2017-08-21T23:10:47.119Z,76.49
2017-08-21T23:13:15.936Z,76.99
2017-08-21T23:15:44.323Z,76.83
2017-08-21T23:18:12.733Z,76.96
2017-08-21T23:20:41.123Z,78.27
2017-08-21T23:23:09.533Z,79.11
2017-08-21T23:25:37.920Z,78.61
2017-08-21T23:28:06.322Z,78.48
2017-08-21T23:30:34.769Z,78.06
2017-08-21T23:33:03.138Z,77.81
2017-08-21T23:35:31.551Z,78.73
2017-08-21T23:38:00.309Z,78.65
2017-08-21T23:40:28.705Z,77.84
2017-08-21T23:42:57.655Z,77.32
2017-08-21T23:45:26.073Z,76.89
2017-08-21T23:47:54.531Z,76.82
2017-08-21T23:50:24.651Z,76.75
2017-08-21T23:52:54.388Z,76.58
2017-08-21T23:55:22.974Z,76.50
2017-08-21T23:57:51.396Z,76.66
